CheckWX is a tool to help pilots better visualize weather data.  It is not intended as a substitute for an official pre-flight weather briefing.

19:57:07 UTC

UTAT TAF
Daşoguz Airport
Daşoguz, Turkmenistan
TAF UTAT 251645Z 2518/2618 35012KT CAVOK 530009 TEMPO 2518/2524 05012KT

Jun-25@
18:00 UTC

Jun-25 @ 18:00 UTC

Jun-26@
18:00 UTC

Jun-26 @ 18:00 UTC

TAF UTAT 251645Z 2518/2618 35012KT CAVOK 530009
Wind
  • 350° at 12 KTS
Conditions
No significant weather
Cloud Levels
  • No significant clouds
Turbulence
< Frequent moderate clear air turbulence expected at the surface extending to 9,000' AGL

Jun-25@
18:00 UTC

Jun-25 @ 18:00 UTC

Jun-26@
00:00 UTC

Jun-26 @ 00:00 UTC

TEMPO 2518/2524 05012KT

Temporary

Temporary Changes expected for less than half the time period

Wind
  • 050° at 12 KTS